Trumbauersville, Pennsylvania
Current Conditions -  °F | °C
As of 11:55 PM on Saturday 22 Nov 2014 (Local Time) from KUKT Reporting Station
Scattered Clouds Scattered Clouds  
Wind Chill: 39°   Ceiling: Unl
Heat Index: 39°   Visibility: 10mi
Dew Point: 21°   Wind: 3mph
Humidity: 49%   Direction: 230°SW
Pressure: 30.22"   Gusts: NA
Location:  40.41°N, 75.38°W
Report Text: KUKT 230455Z AUTO 23003KT 10SM SCT110 04/M06 A3022 RMK AO1
Loading
Personal Weather Stations






























Interactive Weather Map New forecast layout! Learn more

10-Day Weather Forecast

Advertisements
Track Severe Weather on mobile